sensor_id;sensor_type;location;lat;lon;timestamp;temperature;humidity
36594;DHT22;22603;47.900;8.146;2023-07-30T00:01:46;16.50;99.90
36594;DHT22;22603;47.900;8.146;2023-07-30T00:04:32;16.50;99.90
36594;DHT22;22603;47.900;8.146;2023-07-30T00:07:19;16.50;99.90
36594;DHT22;22603;47.900;8.146;2023-07-30T00:10:07;16.40;99.90
36594;DHT22;22603;47.900;8.146;2023-07-30T00:12:53;16.40;99.90
36594;DHT22;22603;47.900;8.146;2023-07-30T00:15:40;16.40;99.90
36594;DHT22;22603;47.900;8.146;2023-07-30T00:18:28;16.40;99.90
36594;DHT22;22603;47.900;8.146;2023-07-30T00:21:15;16.40;99.90
36594;DHT22;22603;47.900;8.146;2023-07-30T00:24:01;16.40;99.90
36594;DHT22;22603;47.900;8.146;2023-07-30T00:26:48;16.30;99.90
36594;DHT22;22603;47.900;8.146;2023-07-30T00:29:34;16.30;99.90
36594;DHT22;22603;47.900;8.146;2023-07-30T00:32:21;16.30;99.90
36594;DHT22;22603;47.900;8.146;2023-07-30T00:35:09;16.30;99.90
36594;DHT22;22603;47.900;8.146;2023-07-30T00:37:56;16.30;99.90
36594;DHT22;22603;47.900;8.146;2023-07-30T00:40:43;16.30;99.90
36594;DHT22;22603;47.900;8.146;2023-07-30T00:43:29;16.30;99.90
36594;DHT22;22603;47.900;8.146;2023-07-30T00:46:16;16.30;99.90
36594;DHT22;22603;47.900;8.146;2023-07-30T00:49:03;16.30;99.90
36594;DHT22;22603;47.900;8.146;2023-07-30T00:51:52;16.30;99.90
36594;DHT22;22603;47.900;8.146;2023-07-30T00:54:39;16.30;99.90
36594;DHT22;22603;47.900;8.146;2023-07-30T00:57:26;16.30;99.90
36594;DHT22;22603;47.900;8.146;2023-07-30T01:00:14;16.20;99.90
36594;DHT22;22603;47.900;8.146;2023-07-30T01:03:01;16.20;99.90
36594;DHT22;22603;47.900;8.146;2023-07-30T01:05:48;16.20;99.90
36594;DHT22;22603;47.900;8.146;2023-07-30T01:08:36;16.20;99.90
36594;DHT22;22603;47.900;8.146;2023-07-30T01:11:24;16.20;99.90
36594;DHT22;22603;47.900;8.146;2023-07-30T01:14:10;16.20;99.90
36594;DHT22;22603;47.900;8.146;2023-07-30T01:16:59;16.20;99.90
36594;DHT22;22603;47.900;8.146;2023-07-30T01:19:46;16.30;99.90
36594;DHT22;22603;47.900;8.146;2023-07-30T01:22:36;16.20;99.90
36594;DHT22;22603;47.900;8.146;2023-07-30T01:25:24;16.30;99.90
36594;DHT22;22603;47.900;8.146;2023-07-30T01:28:16;16.30;99.90
36594;DHT22;22603;47.900;8.146;2023-07-30T01:31:04;16.30;99.90
36594;DHT22;22603;47.900;8.146;2023-07-30T01:33:54;16.30;99.90
36594;DHT22;22603;47.900;8.146;2023-07-30T01:36:42;16.30;99.90
36594;DHT22;22603;47.900;8.146;2023-07-30T01:39:31;16.20;99.90
36594;DHT22;22603;47.900;8.146;2023-07-30T01:42:18;16.20;99.90
36594;DHT22;22603;47.900;8.146;2023-07-30T01:45:07;16.20;99.90
36594;DHT22;22603;47.900;8.146;2023-07-30T01:47:53;16.10;99.90
36594;DHT22;22603;47.900;8.146;2023-07-30T01:50:40;16.10;99.90
36594;DHT22;22603;47.900;8.146;2023-07-30T01:53:28;16.10;99.90
36594;DHT22;22603;47.900;8.146;2023-07-30T01:56:16;16.10;99.90
36594;DHT22;22603;47.900;8.146;2023-07-30T01:59:03;16.10;99.90
36594;DHT22;22603;47.900;8.146;2023-07-30T02:01:50;16.10;99.90
36594;DHT22;22603;47.900;8.146;2023-07-30T02:04:36;16.10;99.90
36594;DHT22;22603;47.900;8.146;2023-07-30T02:07:23;16.10;99.90
36594;DHT22;22603;47.900;8.146;2023-07-30T02:10:10;16.10;99.90
36594;DHT22;22603;47.900;8.146;2023-07-30T02:12:57;16.10;99.90
36594;DHT22;22603;47.900;8.146;2023-07-30T02:15:44;16.00;99.90
36594;DHT22;22603;47.900;8.146;2023-07-30T02:18:31;16.00;99.90
36594;DHT22;22603;47.900;8.146;2023-07-30T02:21:18;16.00;99.90
36594;DHT22;22603;47.900;8.146;2023-07-30T02:24:04;15.90;99.90
36594;DHT22;22603;47.900;8.146;2023-07-30T02:26:55;15.90;99.90
36594;DHT22;22603;47.900;8.146;2023-07-30T02:29:43;16.00;99.90
36594;DHT22;22603;47.900;8.146;2023-07-30T02:32:30;16.00;99.90
36594;DHT22;22603;47.900;8.146;2023-07-30T02:35:16;16.00;99.90
36594;DHT22;22603;47.900;8.146;2023-07-30T02:38:03;16.00;99.90
36594;DHT22;22603;47.900;8.146;2023-07-30T02:40:50;16.10;99.90
36594;DHT22;22603;47.900;8.146;2023-07-30T02:43:36;16.10;99.90
36594;DHT22;22603;47.900;8.146;2023-07-30T02:46:24;16.10;99.90
36594;DHT22;22603;47.900;8.146;2023-07-30T02:49:11;16.10;99.90
36594;DHT22;22603;47.900;8.146;2023-07-30T02:51:57;16.20;99.90
36594;DHT22;22603;47.900;8.146;2023-07-30T02:54:44;16.20;99.90
36594;DHT22;22603;47.900;8.146;2023-07-30T02:57:31;16.20;99.90
36594;DHT22;22603;47.900;8.146;2023-07-30T03:00:18;16.20;99.90
36594;DHT22;22603;47.900;8.146;2023-07-30T03:03:06;16.10;99.90
36594;DHT22;22603;47.900;8.146;2023-07-30T03:05:53;16.20;99.90
36594;DHT22;22603;47.900;8.146;2023-07-30T03:08:39;16.20;99.90
36594;DHT22;22603;47.900;8.146;2023-07-30T03:11:26;16.10;99.90
36594;DHT22;22603;47.900;8.146;2023-07-30T03:14:12;16.10;99.90
36594;DHT22;22603;47.900;8.146;2023-07-30T03:16:59;16.10;99.90
36594;DHT22;22603;47.900;8.146;2023-07-30T03:19:47;16.10;99.90
36594;DHT22;22603;47.900;8.146;2023-07-30T03:22:34;16.10;99.90
36594;DHT22;22603;47.900;8.146;2023-07-30T03:25:21;16.10;99.90
36594;DHT22;22603;47.900;8.146;2023-07-30T03:28:07;16.10;99.90
36594;DHT22;22603;47.900;8.146;2023-07-30T03:30:54;16.10;99.90
36594;DHT22;22603;47.900;8.146;2023-07-30T03:33:41;16.10;99.90
36594;DHT22;22603;47.900;8.146;2023-07-30T03:36:32;16.10;99.90
36594;DHT22;22603;47.900;8.146;2023-07-30T03:39:19;16.10;99.90
36594;DHT22;22603;47.900;8.146;2023-07-30T03:42:06;16.20;99.90
36594;DHT22;22603;47.900;8.146;2023-07-30T03:44:53;16.20;99.90
36594;DHT22;22603;47.900;8.146;2023-07-30T03:47:39;16.20;99.90
36594;DHT22;22603;47.900;8.146;2023-07-30T03:50:26;16.10;99.90
36594;DHT22;22603;47.900;8.146;2023-07-30T03:53:14;16.10;99.90
36594;DHT22;22603;47.900;8.146;2023-07-30T03:56:01;16.00;99.90
36594;DHT22;22603;47.900;8.146;2023-07-30T03:58:48;15.90;99.90
36594;DHT22;22603;47.900;8.146;2023-07-30T04:01:35;15.80;99.90
36594;DHT22;22603;47.900;8.146;2023-07-30T04:04:22;15.70;99.90
36594;DHT22;22603;47.900;8.146;2023-07-30T04:07:08;15.60;99.90
36594;DHT22;22603;47.900;8.146;2023-07-30T04:09:56;15.40;99.90
36594;DHT22;22603;47.900;8.146;2023-07-30T04:12:44;15.40;99.90
36594;DHT22;22603;47.900;8.146;2023-07-30T04:15:30;15.40;99.90
36594;DHT22;22603;47.900;8.146;2023-07-30T04:18:17;15.40;99.90
36594;DHT22;22603;47.900;8.146;2023-07-30T04:21:05;15.50;99.90
36594;DHT22;22603;47.900;8.146;2023-07-30T04:23:51;15.50;99.90
36594;DHT22;22603;47.900;8.146;2023-07-30T04:26:39;15.50;99.90
36594;DHT22;22603;47.900;8.146;2023-07-30T04:29:26;15.60;99.90
36594;DHT22;22603;47.900;8.146;2023-07-30T04:32:13;15.60;99.90
36594;DHT22;22603;47.900;8.146;2023-07-30T04:35:00;15.70;99.90
36594;DHT22;22603;47.900;8.146;2023-07-30T04:37:47;15.90;99.90
36594;DHT22;22603;47.900;8.146;2023-07-30T04:40:34;16.10;99.90
36594;DHT22;22603;47.900;8.146;2023-07-30T04:43:22;16.20;99.90
36594;DHT22;22603;47.900;8.146;2023-07-30T04:46:09;16.40;99.90
36594;DHT22;22603;47.900;8.146;2023-07-30T04:48:58;16.50;99.90
36594;DHT22;22603;47.900;8.146;2023-07-30T04:51:45;16.60;99.90
36594;DHT22;22603;47.900;8.146;2023-07-30T04:54:32;16.70;99.90
36594;DHT22;22603;47.900;8.146;2023-07-30T04:57:19;16.70;99.90
36594;DHT22;22603;47.900;8.146;2023-07-30T05:00:08;16.80;99.90
36594;DHT22;22603;47.900;8.146;2023-07-30T05:02:54;16.80;99.90
36594;DHT22;22603;47.900;8.146;2023-07-30T05:05:41;16.80;99.90
36594;DHT22;22603;47.900;8.146;2023-07-30T05:08:28;16.80;99.90
36594;DHT22;22603;47.900;8.146;2023-07-30T05:11:15;16.90;99.90
36594;DHT22;22603;47.900;8.146;2023-07-30T05:14:02;17.00;99.90
36594;DHT22;22603;47.900;8.146;2023-07-30T05:16:50;17.00;99.90
36594;DHT22;22603;47.900;8.146;2023-07-30T05:19:37;17.10;99.90
36594;DHT22;22603;47.900;8.146;2023-07-30T05:22:23;17.20;99.90
36594;DHT22;22603;47.900;8.146;2023-07-30T05:25:10;17.30;99.90
36594;DHT22;22603;47.900;8.146;2023-07-30T05:27:57;17.40;99.90
36594;DHT22;22603;47.900;8.146;2023-07-30T05:30:44;17.40;99.90
36594;DHT22;22603;47.900;8.146;2023-07-30T05:33:32;17.40;99.90
36594;DHT22;22603;47.900;8.146;2023-07-30T05:36:19;17.30;99.90
36594;DHT22;22603;47.900;8.146;2023-07-30T05:39:05;17.30;99.90
36594;DHT22;22603;47.900;8.146;2023-07-30T05:41:52;17.30;99.90
36594;DHT22;22603;47.900;8.146;2023-07-30T05:44:39;17.20;99.90
36594;DHT22;22603;47.900;8.146;2023-07-30T05:47:26;17.20;99.90
36594;DHT22;22603;47.900;8.146;2023-07-30T05:50:15;17.20;99.90
36594;DHT22;22603;47.900;8.146;2023-07-30T05:53:01;17.30;99.90
36594;DHT22;22603;47.900;8.146;2023-07-30T05:55:48;17.30;99.90
36594;DHT22;22603;47.900;8.146;2023-07-30T05:58:36;17.30;99.90
36594;DHT22;22603;47.900;8.146;2023-07-30T06:01:23;17.30;99.90
36594;DHT22;22603;47.900;8.146;2023-07-30T06:04:09;17.40;99.90
36594;DHT22;22603;47.900;8.146;2023-07-30T06:06:59;17.50;99.90
36594;DHT22;22603;47.900;8.146;2023-07-30T06:09:49;17.60;99.90
36594;DHT22;22603;47.900;8.146;2023-07-30T06:12:35;17.70;99.90
36594;DHT22;22603;47.900;8.146;2023-07-30T06:15:22;17.80;99.90
36594;DHT22;22603;47.900;8.146;2023-07-30T06:18:09;17.90;99.90
36594;DHT22;22603;47.900;8.146;2023-07-30T06:20:55;17.90;99.90
36594;DHT22;22603;47.900;8.146;2023-07-30T06:23:43;18.00;99.90
36594;DHT22;22603;47.900;8.146;2023-07-30T06:26:30;17.80;99.90
36594;DHT22;22603;47.900;8.146;2023-07-30T06:29:17;17.90;99.90
36594;DHT22;22603;47.900;8.146;2023-07-30T06:32:04;18.10;99.90
36594;DHT22;22603;47.900;8.146;2023-07-30T06:34:51;18.20;99.90
36594;DHT22;22603;47.900;8.146;2023-07-30T06:37:38;18.20;99.90
36594;DHT22;22603;47.900;8.146;2023-07-30T06:40:26;18.20;99.90
36594;DHT22;22603;47.900;8.146;2023-07-30T06:43:12;18.20;99.90
36594;DHT22;22603;47.900;8.146;2023-07-30T06:45:59;18.20;99.90
36594;DHT22;22603;47.900;8.146;2023-07-30T06:48:46;18.20;99.90
36594;DHT22;22603;47.900;8.146;2023-07-30T06:51:33;18.10;99.90
36594;DHT22;22603;47.900;8.146;2023-07-30T06:54:20;18.10;99.90
36594;DHT22;22603;47.900;8.146;2023-07-30T06:57:08;17.90;99.90
36594;DHT22;22603;47.900;8.146;2023-07-30T06:59:55;17.90;99.90
36594;DHT22;22603;47.900;8.146;2023-07-30T07:02:43;17.80;99.90
36594;DHT22;22603;47.900;8.146;2023-07-30T07:05:30;17.90;99.90
36594;DHT22;22603;47.900;8.146;2023-07-30T07:08:16;18.00;99.90
36594;DHT22;22603;47.900;8.146;2023-07-30T07:11:03;18.00;99.90
36594;DHT22;22603;47.900;8.146;2023-07-30T07:13:51;18.00;99.90
36594;DHT22;22603;47.900;8.146;2023-07-30T07:16:40;18.00;99.90
36594;DHT22;22603;47.900;8.146;2023-07-30T07:19:27;18.00;99.90
36594;DHT22;22603;47.900;8.146;2023-07-30T07:22:14;18.00;99.90
36594;DHT22;22603;47.900;8.146;2023-07-30T07:25:03;18.00;99.90
36594;DHT22;22603;47.900;8.146;2023-07-30T07:27:49;18.10;99.90
36594;DHT22;22603;47.900;8.146;2023-07-30T07:30:37;18.00;99.90
36594;DHT22;22603;47.900;8.146;2023-07-30T07:33:24;18.00;99.90
36594;DHT22;22603;47.900;8.146;2023-07-30T07:36:11;18.30;99.90
36594;DHT22;22603;47.900;8.146;2023-07-30T07:38:59;18.40;99.90
36594;DHT22;22603;47.900;8.146;2023-07-30T07:41:46;18.80;99.90
36594;DHT22;22603;47.900;8.146;2023-07-30T07:44:33;19.10;99.90
36594;DHT22;22603;47.900;8.146;2023-07-30T07:47:23;19.10;99.90
36594;DHT22;22603;47.900;8.146;2023-07-30T07:50:10;19.20;99.90
36594;DHT22;22603;47.900;8.146;2023-07-30T07:52:58;19.10;99.90
36594;DHT22;22603;47.900;8.146;2023-07-30T07:55:45;18.90;99.90
36594;DHT22;22603;47.900;8.146;2023-07-30T07:58:32;19.00;99.90
36594;DHT22;22603;47.900;8.146;2023-07-30T08:01:19;19.20;99.90
36594;DHT22;22603;47.900;8.146;2023-07-30T08:04:07;19.10;99.90
36594;DHT22;22603;47.900;8.146;2023-07-30T08:06:54;19.70;99.90
36594;DHT22;22603;47.900;8.146;2023-07-30T08:09:45;20.00;99.90
36594;DHT22;22603;47.900;8.146;2023-07-30T08:12:32;20.30;99.90
36594;DHT22;22603;47.900;8.146;2023-07-30T08:15:19;20.50;99.90
36594;DHT22;22603;47.900;8.146;2023-07-30T08:18:06;20.10;99.90
36594;DHT22;22603;47.900;8.146;2023-07-30T08:20:54;20.50;99.90
36594;DHT22;22603;47.900;8.146;2023-07-30T08:23:41;21.00;99.90
36594;DHT22;22603;47.900;8.146;2023-07-30T08:26:27;21.50;99.90
36594;DHT22;22603;47.900;8.146;2023-07-30T08:29:14;21.50;99.90
36594;DHT22;22603;47.900;8.146;2023-07-30T08:32:01;21.20;99.90
36594;DHT22;22603;47.900;8.146;2023-07-30T08:34:47;21.10;99.90
36594;DHT22;22603;47.900;8.146;2023-07-30T08:37:35;20.30;99.90
36594;DHT22;22603;47.900;8.146;2023-07-30T08:40:22;20.80;99.90
36594;DHT22;22603;47.900;8.146;2023-07-30T08:43:10;21.60;99.90
36594;DHT22;22603;47.900;8.146;2023-07-30T08:45:56;22.80;99.90
36594;DHT22;22603;47.900;8.146;2023-07-30T08:48:43;23.60;99.90
36594;DHT22;22603;47.900;8.146;2023-07-30T08:51:36;24.20;99.90
36594;DHT22;22603;47.900;8.146;2023-07-30T08:54:27;23.90;99.90
36594;DHT22;22603;47.900;8.146;2023-07-30T08:57:16;24.30;99.90
36594;DHT22;22603;47.900;8.146;2023-07-30T09:00:06;23.40;99.90
36594;DHT22;22603;47.900;8.146;2023-07-30T09:02:56;22.80;99.90
36594;DHT22;22603;47.900;8.146;2023-07-30T09:05:45;23.40;99.90
36594;DHT22;22603;47.900;8.146;2023-07-30T09:08:31;23.10;99.90
36594;DHT22;22603;47.900;8.146;2023-07-30T09:11:20;23.00;99.90
36594;DHT22;22603;47.900;8.146;2023-07-30T09:14:11;22.50;99.90
36594;DHT22;22603;47.900;8.146;2023-07-30T09:16:58;22.80;99.90
36594;DHT22;22603;47.900;8.146;2023-07-30T09:19:45;22.70;99.90
36594;DHT22;22603;47.900;8.146;2023-07-30T09:22:33;22.40;99.90
36594;DHT22;22603;47.900;8.146;2023-07-30T09:25:22;22.70;99.90
36594;DHT22;22603;47.900;8.146;2023-07-30T09:28:10;22.90;99.90
36594;DHT22;22603;47.900;8.146;2023-07-30T09:31:00;21.80;99.90
36594;DHT22;22603;47.900;8.146;2023-07-30T09:34:05;21.60;99.90
36594;DHT22;22603;47.900;8.146;2023-07-30T09:36:53;22.20;99.90
36594;DHT22;22603;47.900;8.146;2023-07-30T09:39:39;22.70;99.90
36594;DHT22;22603;47.900;8.146;2023-07-30T09:42:27;23.00;99.90
36594;DHT22;22603;47.900;8.146;2023-07-30T09:45:21;22.80;99.90
36594;DHT22;22603;47.900;8.146;2023-07-30T09:48:08;22.50;99.90
36594;DHT22;22603;47.900;8.146;2023-07-30T09:50:56;23.00;99.90
36594;DHT22;22603;47.900;8.146;2023-07-30T09:53:43;22.90;99.90
36594;DHT22;22603;47.900;8.146;2023-07-30T09:56:30;22.80;99.90
36594;DHT22;22603;47.900;8.146;2023-07-30T09:59:17;23.20;99.90
36594;DHT22;22603;47.900;8.146;2023-07-30T10:02:07;23.20;99.90
36594;DHT22;22603;47.900;8.146;2023-07-30T10:04:57;23.40;99.90
36594;DHT22;22603;47.900;8.146;2023-07-30T10:07:49;23.70;99.90
36594;DHT22;22603;47.900;8.146;2023-07-30T10:10:37;23.90;99.90
36594;DHT22;22603;47.900;8.146;2023-07-30T10:13:24;23.60;99.90
36594;DHT22;22603;47.900;8.146;2023-07-30T10:16:12;23.60;99.90
36594;DHT22;22603;47.900;8.146;2023-07-30T10:19:02;24.10;99.90
36594;DHT22;22603;47.900;8.146;2023-07-30T10:21:48;24.70;99.90
36594;DHT22;22603;47.900;8.146;2023-07-30T10:24:35;24.10;99.90
36594;DHT22;22603;47.900;8.146;2023-07-30T10:27:24;23.10;99.90
36594;DHT22;22603;47.900;8.146;2023-07-30T10:30:12;22.40;99.90
36594;DHT22;22603;47.900;8.146;2023-07-30T10:33:01;23.50;99.90
36594;DHT22;22603;47.900;8.146;2023-07-30T10:35:54;24.50;99.90
36594;DHT22;22603;47.900;8.146;2023-07-30T10:38:41;24.80;99.90
36594;DHT22;22603;47.900;8.146;2023-07-30T10:41:29;23.80;99.90
36594;DHT22;22603;47.900;8.146;2023-07-30T10:44:19;22.60;99.90
36594;DHT22;22603;47.900;8.146;2023-07-30T10:47:08;22.00;99.90
36594;DHT22;22603;47.900;8.146;2023-07-30T10:50:14;22.20;99.90
36594;DHT22;22603;47.900;8.146;2023-07-30T10:53:03;23.10;99.90
36594;DHT22;22603;47.900;8.146;2023-07-30T10:55:50;22.50;99.90
36594;DHT22;22603;47.900;8.146;2023-07-30T10:58:38;22.50;99.90
36594;DHT22;22603;47.900;8.146;2023-07-30T11:01:25;23.10;99.90
36594;DHT22;22603;47.900;8.146;2023-07-30T11:04:15;23.00;99.90
36594;DHT22;22603;47.900;8.146;2023-07-30T11:07:02;23.30;99.90
36594;DHT22;22603;47.900;8.146;2023-07-30T11:10:00;23.60;99.90
36594;DHT22;22603;47.900;8.146;2023-07-30T11:12:48;24.80;99.90
36594;DHT22;22603;47.900;8.146;2023-07-30T11:15:40;23.80;99.90
36594;DHT22;22603;47.900;8.146;2023-07-30T11:18:31;24.80;99.90
36594;DHT22;22603;47.900;8.146;2023-07-30T11:21:18;24.20;99.90
36594;DHT22;22603;47.900;8.146;2023-07-30T11:24:05;24.20;99.90
36594;DHT22;22603;47.900;8.146;2023-07-30T11:26:58;23.70;99.90
36594;DHT22;22603;47.900;8.146;2023-07-30T11:29:54;23.00;99.90
36594;DHT22;22603;47.900;8.146;2023-07-30T11:32:42;22.80;99.90
36594;DHT22;22603;47.900;8.146;2023-07-30T11:35:30;22.80;99.90
36594;DHT22;22603;47.900;8.146;2023-07-30T11:38:17;23.10;99.90
36594;DHT22;22603;47.900;8.146;2023-07-30T11:41:06;23.00;99.90
36594;DHT22;22603;47.900;8.146;2023-07-30T11:43:56;23.20;99.90
36594;DHT22;22603;47.900;8.146;2023-07-30T11:46:53;23.00;99.90
36594;DHT22;22603;47.900;8.146;2023-07-30T11:49:40;21.80;99.90
36594;DHT22;22603;47.900;8.146;2023-07-30T11:52:27;21.70;99.90
36594;DHT22;22603;47.900;8.146;2023-07-30T11:55:13;21.90;99.90
36594;DHT22;22603;47.900;8.146;2023-07-30T11:58:00;21.70;99.90
36594;DHT22;22603;47.900;8.146;2023-07-30T12:00:48;21.50;99.90
36594;DHT22;22603;47.900;8.146;2023-07-30T12:03:35;22.00;99.90
36594;DHT22;22603;47.900;8.146;2023-07-30T12:06:24;21.50;99.90
36594;DHT22;22603;47.900;8.146;2023-07-30T12:09:24;21.30;99.90
36594;DHT22;22603;47.900;8.146;2023-07-30T12:12:12;21.00;99.90
36594;DHT22;22603;47.900;8.146;2023-07-30T12:14:58;21.10;99.90
36594;DHT22;22603;47.900;8.146;2023-07-30T12:17:47;20.90;99.90
36594;DHT22;22603;47.900;8.146;2023-07-30T12:20:33;20.60;99.90
36594;DHT22;22603;47.900;8.146;2023-07-30T12:23:20;20.30;99.90
36594;DHT22;22603;47.900;8.146;2023-07-30T12:26:07;19.80;99.90
36594;DHT22;22603;47.900;8.146;2023-07-30T12:28:54;19.40;99.90
36594;DHT22;22603;47.900;8.146;2023-07-30T12:31:43;19.40;99.90
36594;DHT22;22603;47.900;8.146;2023-07-30T12:34:33;20.20;99.90
36594;DHT22;22603;47.900;8.146;2023-07-30T12:37:20;21.10;99.90
36594;DHT22;22603;47.900;8.146;2023-07-30T12:40:09;20.90;99.90
36594;DHT22;22603;47.900;8.146;2023-07-30T12:42:56;21.30;99.90
36594;DHT22;22603;47.900;8.146;2023-07-30T12:45:43;21.10;99.90
36594;DHT22;22603;47.900;8.146;2023-07-30T12:48:30;21.10;99.90
36594;DHT22;22603;47.900;8.146;2023-07-30T12:51:18;20.60;99.90
36594;DHT22;22603;47.900;8.146;2023-07-30T12:54:05;20.50;99.90
36594;DHT22;22603;47.900;8.146;2023-07-30T12:56:51;20.10;99.90
36594;DHT22;22603;47.900;8.146;2023-07-30T12:59:38;20.00;99.90
36594;DHT22;22603;47.900;8.146;2023-07-30T13:02:25;20.60;99.90
36594;DHT22;22603;47.900;8.146;2023-07-30T13:05:11;21.00;99.90
36594;DHT22;22603;47.900;8.146;2023-07-30T13:08:00;21.30;99.90
36594;DHT22;22603;47.900;8.146;2023-07-30T13:10:48;21.10;99.90
36594;DHT22;22603;47.900;8.146;2023-07-30T13:13:34;21.20;99.90
36594;DHT22;22603;47.900;8.146;2023-07-30T13:16:21;21.40;99.90
36594;DHT22;22603;47.900;8.146;2023-07-30T13:19:08;21.40;99.90
36594;DHT22;22603;47.900;8.146;2023-07-30T13:21:54;21.50;99.90
36594;DHT22;22603;47.900;8.146;2023-07-30T13:24:42;21.90;99.90
36594;DHT22;22603;47.900;8.146;2023-07-30T13:27:29;22.00;99.90
36594;DHT22;22603;47.900;8.146;2023-07-30T13:30:16;21.80;99.90
36594;DHT22;22603;47.900;8.146;2023-07-30T13:33:03;22.00;99.90
36594;DHT22;22603;47.900;8.146;2023-07-30T13:35:49;21.30;99.90
36594;DHT22;22603;47.900;8.146;2023-07-30T13:38:36;21.30;99.90
36594;DHT22;22603;47.900;8.146;2023-07-30T13:41:25;20.90;99.90
36594;DHT22;22603;47.900;8.146;2023-07-30T13:44:14;21.10;99.90
36594;DHT22;22603;47.900;8.146;2023-07-30T13:47:04;21.30;99.90
36594;DHT22;22603;47.900;8.146;2023-07-30T13:49:51;21.80;99.90
36594;DHT22;22603;47.900;8.146;2023-07-30T13:52:39;21.60;99.90
36594;DHT22;22603;47.900;8.146;2023-07-30T13:55:26;21.40;99.90
36594;DHT22;22603;47.900;8.146;2023-07-30T13:58:14;21.10;99.90
36594;DHT22;22603;47.900;8.146;2023-07-30T14:01:01;21.00;99.90
36594;DHT22;22603;47.900;8.146;2023-07-30T14:03:47;21.10;99.90
36594;DHT22;22603;47.900;8.146;2023-07-30T14:06:34;21.70;99.90
36594;DHT22;22603;47.900;8.146;2023-07-30T14:09:22;22.20;99.90
36594;DHT22;22603;47.900;8.146;2023-07-30T14:12:09;22.00;99.90
36594;DHT22;22603;47.900;8.146;2023-07-30T14:14:58;21.90;99.90
36594;DHT22;22603;47.900;8.146;2023-07-30T14:17:45;21.80;99.90
36594;DHT22;22603;47.900;8.146;2023-07-30T14:20:34;21.50;99.90
36594;DHT22;22603;47.900;8.146;2023-07-30T14:23:23;21.30;99.90
36594;DHT22;22603;47.900;8.146;2023-07-30T14:26:09;21.10;99.90
36594;DHT22;22603;47.900;8.146;2023-07-30T14:28:56;20.80;99.90
36594;DHT22;22603;47.900;8.146;2023-07-30T14:31:44;20.90;99.90
36594;DHT22;22603;47.900;8.146;2023-07-30T14:34:30;20.80;99.90
36594;DHT22;22603;47.900;8.146;2023-07-30T14:37:17;20.70;99.90
36594;DHT22;22603;47.900;8.146;2023-07-30T14:40:05;20.60;99.90
36594;DHT22;22603;47.900;8.146;2023-07-30T14:42:52;20.80;99.90
36594;DHT22;22603;47.900;8.146;2023-07-30T14:45:39;20.90;99.90
36594;DHT22;22603;47.900;8.146;2023-07-30T14:48:27;20.80;99.90
36594;DHT22;22603;47.900;8.146;2023-07-30T14:51:15;20.80;99.90
36594;DHT22;22603;47.900;8.146;2023-07-30T14:54:02;20.70;99.90
36594;DHT22;22603;47.900;8.146;2023-07-30T14:56:49;20.80;99.90
36594;DHT22;22603;47.900;8.146;2023-07-30T14:59:35;21.10;99.90
36594;DHT22;22603;47.900;8.146;2023-07-30T15:02:22;21.10;99.90
36594;DHT22;22603;47.900;8.146;2023-07-30T15:05:10;21.20;99.90
36594;DHT22;22603;47.900;8.146;2023-07-30T15:07:57;21.10;99.90
36594;DHT22;22603;47.900;8.146;2023-07-30T15:10:43;21.00;99.90
36594;DHT22;22603;47.900;8.146;2023-07-30T15:13:30;20.90;99.90
36594;DHT22;22603;47.900;8.146;2023-07-30T15:16:16;20.60;99.90
36594;DHT22;22603;47.900;8.146;2023-07-30T15:19:03;20.60;99.90
36594;DHT22;22603;47.900;8.146;2023-07-30T15:21:52;20.50;99.90
36594;DHT22;22603;47.900;8.146;2023-07-30T15:24:38;20.50;99.90
36594;DHT22;22603;47.900;8.146;2023-07-30T15:27:25;20.90;99.90
36594;DHT22;22603;47.900;8.146;2023-07-30T15:30:12;21.10;99.90
36594;DHT22;22603;47.900;8.146;2023-07-30T15:32:58;21.00;99.90
36594;DHT22;22603;47.900;8.146;2023-07-30T15:35:47;21.00;99.90
36594;DHT22;22603;47.900;8.146;2023-07-30T15:38:38;20.90;99.90
36594;DHT22;22603;47.900;8.146;2023-07-30T15:41:26;20.20;99.90
36594;DHT22;22603;47.900;8.146;2023-07-30T15:44:13;19.90;99.90
36594;DHT22;22603;47.900;8.146;2023-07-30T15:47:00;20.10;99.90
36594;DHT22;22603;47.900;8.146;2023-07-30T15:49:47;20.20;99.90
36594;DHT22;22603;47.900;8.146;2023-07-30T15:52:34;20.30;99.90
36594;DHT22;22603;47.900;8.146;2023-07-30T15:55:23;20.40;99.90
36594;DHT22;22603;47.900;8.146;2023-07-30T15:58:09;20.30;99.90
36594;DHT22;22603;47.900;8.146;2023-07-30T16:00:56;20.30;99.90
36594;DHT22;22603;47.900;8.146;2023-07-30T16:03:43;20.10;99.90
36594;DHT22;22603;47.900;8.146;2023-07-30T16:06:29;19.90;99.90
36594;DHT22;22603;47.900;8.146;2023-07-30T16:09:16;20.00;99.90
36594;DHT22;22603;47.900;8.146;2023-07-30T16:12:06;19.90;99.90
36594;DHT22;22603;47.900;8.146;2023-07-30T16:14:52;19.80;99.90
36594;DHT22;22603;47.900;8.146;2023-07-30T16:17:39;19.70;99.90
36594;DHT22;22603;47.900;8.146;2023-07-30T16:20:26;19.60;99.90
36594;DHT22;22603;47.900;8.146;2023-07-30T16:23:13;19.50;99.90
36594;DHT22;22603;47.900;8.146;2023-07-30T16:26:00;19.50;99.90
36594;DHT22;22603;47.900;8.146;2023-07-30T16:28:49;19.40;99.90
36594;DHT22;22603;47.900;8.146;2023-07-30T16:31:36;19.40;99.90
36594;DHT22;22603;47.900;8.146;2023-07-30T16:34:22;19.30;99.90
36594;DHT22;22603;47.900;8.146;2023-07-30T16:37:09;19.40;99.90
36594;DHT22;22603;47.900;8.146;2023-07-30T16:39:56;19.50;99.90
36594;DHT22;22603;47.900;8.146;2023-07-30T16:42:42;19.40;99.90
36594;DHT22;22603;47.900;8.146;2023-07-30T16:45:30;19.50;99.90
36594;DHT22;22603;47.900;8.146;2023-07-30T16:48:17;19.60;99.90
36594;DHT22;22603;47.900;8.146;2023-07-30T16:51:04;19.60;99.90
36594;DHT22;22603;47.900;8.146;2023-07-30T16:53:51;19.60;99.90
36594;DHT22;22603;47.900;8.146;2023-07-30T16:56:37;19.50;99.90
36594;DHT22;22603;47.900;8.146;2023-07-30T16:59:24;19.60;99.90
36594;DHT22;22603;47.900;8.146;2023-07-30T17:02:13;19.40;99.90
36594;DHT22;22603;47.900;8.146;2023-07-30T17:04:59;19.20;99.90
36594;DHT22;22603;47.900;8.146;2023-07-30T17:07:46;19.00;99.90
36594;DHT22;22603;47.900;8.146;2023-07-30T17:10:35;18.80;99.90
36594;DHT22;22603;47.900;8.146;2023-07-30T17:13:22;18.60;99.90
36594;DHT22;22603;47.900;8.146;2023-07-30T17:16:10;18.40;99.90
36594;DHT22;22603;47.900;8.146;2023-07-30T17:18:59;18.40;99.90
36594;DHT22;22603;47.900;8.146;2023-07-30T17:21:45;18.40;99.90
36594;DHT22;22603;47.900;8.146;2023-07-30T17:24:32;18.30;99.90
36594;DHT22;22603;47.900;8.146;2023-07-30T17:27:19;18.40;99.90
36594;DHT22;22603;47.900;8.146;2023-07-30T17:30:06;18.30;99.90
36594;DHT22;22603;47.900;8.146;2023-07-30T17:32:53;18.30;99.90
36594;DHT22;22603;47.900;8.146;2023-07-30T17:35:41;18.20;99.90
36594;DHT22;22603;47.900;8.146;2023-07-30T17:38:28;18.10;99.90